Time;durP1;ratioP1;P1;durP2;ratioP2;P2;SDS_P1;SDS_P2;PMS_P1;PMS_P2;Temp;Humidity;BMP_temperature;BMP_pressure;BME280_temperature;BME280_humidity;BME280_pressure;Samples;Min_cycle;Max_cycle;Signal;HPM_P1;HPM_P2
2023/06/20 00:01:03;;;;;;;;;9.67;8.67;;;;;29.03;43.43;100810.97;5076076;28;45342;-70
2023/06/20 00:03:28;;;;;;;;;8.00;8.00;;;;;29.01;43.50;100799.69;5076462;28;45346;-70
2023/06/20 00:05:54;;;;;;;;;8.00;7.33;;;;;29.03;43.41;100798.41;5075591;28;46204;-70
2023/06/20 00:08:19;;;;;;;;;8.00;8.00;;;;;29.04;43.25;100797.34;5076114;28;45346;-70
2023/06/20 00:10:44;;;;;;;;;8.33;8.33;;;;;29.04;42.74;100791.19;5076486;27;45354;-70
2023/06/20 00:13:10;;;;;;;;;9.67;9.33;;;;;29.05;43.17;100792.81;5076118;28;45441;-71
2023/06/20 00:15:35;;;;;;;;;9.00;8.00;;;;;29.05;43.59;100796.31;5075646;28;45338;-70
2023/06/20 00:18:00;;;;;;;;;6.00;5.33;;;;;29.07;43.00;100796.06;5076112;28;45409;-71
2023/06/20 00:20:27;;;;;;;;;10.67;9.33;;;;;29.05;43.29;100799.00;5076228;28;45579;-70
2023/06/20 00:22:53;;;;;;;;;10.00;7.00;;;;;29.07;43.35;100794.22;5076241;28;45307;-71
2023/06/20 00:25:18;;;;;;;;;7.33;6.67;;;;;29.07;43.60;100778.16;5075743;28;46269;-71
2023/06/20 00:27:44;;;;;;;;;7.67;7.67;;;;;29.07;43.14;100780.81;5075919;28;45435;-70
2023/06/20 00:30:10;;;;;;;;;8.33;8.00;;;;;29.08;43.34;100781.66;5075750;28;45292;-70
2023/06/20 00:32:35;;;;;;;;;9.00;8.00;;;;;29.08;43.32;100776.28;5076138;27;45613;-70
2023/06/20 00:35:01;;;;;;;;;7.00;7.00;;;;;29.10;43.17;100778.75;5075793;28;46017;-70
2023/06/20 00:37:26;;;;;;;;;7.33;7.33;;;;;29.07;43.40;100769.28;5075764;28;45342;-71
2023/06/20 00:39:52;;;;;;;;;7.33;7.33;;;;;29.08;42.98;100781.66;5075742;27;45365;-71
2023/06/20 00:42:19;;;;;;;;;7.33;7.00;;;;;29.08;43.24;100776.28;5075946;28;45502;-71
2023/06/20 00:44:45;;;;;;;;;7.33;7.33;;;;;29.09;43.12;100780.66;5075341;27;45343;-70
2023/06/20 00:47:11;;;;;;;;;6.33;6.33;;;;;29.10;43.38;100790.28;5075633;28;45268;-70
2023/06/20 00:49:38;;;;;;;;;8.00;7.00;;;;;29.09;43.35;100788.69;5075579;28;45326;-71
2023/06/20 00:52:05;;;;;;;;;7.33;6.67;;;;;29.09;43.21;100796.72;5075615;27;45344;-70
2023/06/20 00:54:30;;;;;;;;;8.33;7.00;;;;;29.11;43.34;100791.13;5075412;28;46182;-70
2023/06/20 00:56:56;;;;;;;;;8.33;7.00;;;;;29.07;43.45;100791.53;5075430;28;45350;-70
2023/06/20 00:59:21;;;;;;;;;5.33;5.33;;;;;29.11;43.32;100788.44;5075317;28;45186;-70
2023/06/20 01:01:47;;;;;;;;;7.33;6.67;;;;;29.11;43.44;100788.44;5075720;28;45422;-70
2023/06/20 01:04:12;;;;;;;;;6.33;6.33;;;;;29.11;43.42;100802.66;5075547;28;46099;-71
2023/06/20 01:06:46;;;;;;;;;6.33;5.67;;;;;29.10;43.14;100798.31;5075501;28;45387;-70
2023/06/20 01:09:14;;;;;;;;;6.00;6.00;;;;;29.11;43.32;100805.34;5075490;28;45375;-71
2023/06/20 01:11:47;;;;;;;;;8.00;7.00;;;;;29.11;42.88;100805.34;5075634;28;45352;-70
2023/06/20 01:14:28;;;;;;;;;8.67;7.67;;;;;29.12;43.15;100790.09;5074867;27;45374;-70
2023/06/20 01:17:09;;;;;;;;;7.67;7.67;;;;;29.13;43.54;100784.47;5075172;28;45494;-70
2023/06/20 01:20:04;;;;;;;;;8.00;6.00;;;;;29.13;43.16;100779.13;5078785;28;45383;-70
2023/06/20 01:22:56;;;;;;;;;9.33;7.33;;;;;29.07;42.93;100766.63;5078662;28;45377;-71
2023/06/20 01:25:46;;;;;;;;;6.33;5.33;;;;;29.13;43.17;100780.97;5078511;28;47132;-70
2023/06/20 01:28:24;;;;;;;;;5.00;5.00;;;;;29.13;42.56;100775.63;5078256;27;45299;-70
2023/06/20 01:30:59;;;;;;;;;7.00;7.00;;;;;29.13;43.30;100772.94;5078732;28;45333;-70
2023/06/20 01:33:30;;;;;;;;;8.00;8.00;;;;;29.12;43.26;100766.75;5078586;28;45280;-71
2023/06/20 01:35:59;;;;;;;;;5.00;5.00;;;;;29.14;43.12;100769.22;5078413;28;46140;-71
2023/06/20 01:38:28;;;;;;;;;7.33;5.33;;;;;29.12;43.22;100756.06;5078279;28;45325;-71
2023/06/20 01:40:55;;;;;;;;;9.00;9.00;;;;;29.14;43.09;100755.84;5078691;27;45403;-71
2023/06/20 01:43:22;;;;;;;;;7.33;7.33;;;;;29.14;43.12;100745.13;5078132;28;45359;-71
2023/06/20 01:45:50;;;;;;;;;5.33;5.33;;;;;29.15;43.28;100746.75;5078440;28;46260;-71
2023/06/20 01:48:18;;;;;;;;;9.00;7.33;;;;;29.16;43.18;100753.75;5078361;28;45284;-71
2023/06/20 01:50:45;;;;;;;;;8.33;7.67;;;;;29.13;43.39;100746.97;5078284;27;45395;-71
2023/06/20 01:53:12;;;;;;;;;10.00;10.00;;;;;29.13;43.01;100749.66;5078286;28;45385;-71
2023/06/20 01:55:41;;;;;;;;;7.33;6.67;;;;;29.13;43.47;100752.34;5078161;28;45391;-71
2023/06/20 01:58:07;;;;;;;;;10.00;8.00;;;;;29.16;43.41;100753.75;5077910;27;45386;-71
2023/06/20 02:00:34;;;;;;;;;7.67;7.67;;;;;29.13;43.25;100754.19;5078240;28;45279;-71
2023/06/20 02:03:01;;;;;;;;;8.00;6.00;;;;;29.13;43.16;100756.88;5078296;27;45347;-71
2023/06/20 02:05:31;;;;;;;;;9.00;9.00;;;;;29.15;43.20;100769.00;5078041;28;46185;-71
2023/06/20 02:07:58;;;;;;;;;8.00;7.33;;;;;29.15;43.29;100766.31;5077993;28;45273;-71
2023/06/20 02:10:25;;;;;;;;;6.67;6.33;;;;;29.15;43.41;100760.97;5078152;28;45358;-71
2023/06/20 02:12:53;;;;;;;;;7.00;7.00;;;;;29.14;43.22;100764.69;5077703;28;45489;-71
2023/06/20 02:15:20;;;;;;;;;8.33;7.67;;;;;29.13;43.12;100763.06;5077458;28;46351;-71
2023/06/20 02:17:46;;;;;;;;;6.67;6.33;;;;;29.14;43.01;100759.34;5077860;28;45402;-71
2023/06/20 02:20:13;;;;;;;;;7.67;6.67;;;;;29.09;43.54;100758.38;5078027;27;45390;-71
2023/06/20 02:22:42;;;;;;;;;10.00;7.00;;;;;29.12;43.29;100766.75;5077937;28;45418;-71
2023/06/20 02:25:12;;;;;;;;;7.00;7.00;;;;;29.15;43.25;100765.50;5077730;28;45399;-71
2023/06/20 02:27:40;;;;;;;;;9.33;7.33;;;;;29.10;43.26;100751.97;5077456;27;45425;-71
2023/06/20 02:30:09;;;;;;;;;6.00;6.00;;;;;29.15;43.15;100757.44;5077355;28;45401;-71
2023/06/20 02:32:36;;;;;;;;;7.00;7.00;;;;;29.15;43.10;100763.63;5077790;28;45504;-71
2023/06/20 02:35:04;;;;;;;;;7.67;7.67;;;;;29.14;43.22;100753.97;5077599;28;45320;-71
2023/06/20 02:37:33;;;;;;;;;6.67;5.00;;;;;29.15;43.10;100752.09;5077501;28;45374;-71
2023/06/20 02:39:58;;;;;;;;;7.33;7.33;;;;;29.16;43.52;100740.34;5077597;27;45319;-71
2023/06/20 02:42:24;;;;;;;;;6.75;6.75;;;;;29.16;43.13;100733.13;5077320;28;45513;-71
2023/06/20 02:44:49;;;;;;;;;7.00;7.00;;;;;29.16;43.08;100738.50;5077554;28;46276;-71
2023/06/20 02:47:29;;;;;;;;;7.00;7.00;;;;;29.16;43.30;100737.66;5077629;27;45284;-70
2023/06/20 02:50:03;;;;;;;;;7.00;6.00;;;;;29.16;43.35;100735.00;5077595;27;45485;-71
2023/06/20 02:52:34;;;;;;;;;6.33;6.33;;;;;29.16;43.44;100730.44;5077495;28;45332;-70
2023/06/20 02:55:14;;;;;;;;;6.67;6.00;;;;;29.17;43.27;100723.25;5076922;28;46346;-71
2023/06/20 02:57:44;;;;;;;;;8.00;7.00;;;;;29.17;43.08;100718.69;5077257;27;45465;-71
2023/06/20 03:00:12;;;;;;;;;8.33;8.00;;;;;29.16;43.15;100717.06;5077479;28;45316;-71
2023/06/20 03:02:46;;;;;;;;;5.67;5.67;;;;;29.16;43.09;100710.88;5077305;28;45395;-70
2023/06/20 03:05:16;;;;;;;;;5.33;5.33;;;;;29.16;42.80;100706.34;5077225;28;46137;-71
2023/06/20 03:07:42;;;;;;;;;9.00;7.00;;;;;29.17;43.09;100710.63;5076846;28;45274;-71
2023/06/20 03:10:09;;;;;;;;;4.00;4.00;;;;;29.15;43.21;100702.03;5076891;28;45416;-71
2023/06/20 03:12:35;;;;;;;;;7.00;6.67;;;;;29.17;43.22;100699.13;5077197;28;45283;-71
2023/06/20 03:15:00;;;;;;;;;9.33;8.00;;;;;29.17;43.25;100696.44;5076660;28;46096;-71
2023/06/20 03:17:26;;;;;;;;;6.33;6.00;;;;;29.16;43.28;100694.81;5076971;28;45354;-71
2023/06/20 03:19:51;;;;;;;;;6.00;6.00;;;;;29.15;43.67;100688.63;5077201;27;45233;-71
2023/06/20 03:22:16;;;;;;;;;7.67;6.00;;;;;29.18;43.14;100695.38;5077025;27;45387;-71
2023/06/20 03:24:41;;;;;;;;;7.33;6.67;;;;;29.17;43.19;100691.09;5076565;28;45959;-71
2023/06/20 03:27:07;;;;;;;;;8.33;8.33;;;;;29.16;43.25;100687.59;5076819;28;45465;-71
2023/06/20 03:29:32;;;;;;;;;9.00;7.00;;;;;29.15;43.33;100691.31;5077071;28;45295;-71
2023/06/20 03:31:58;;;;;;;;;8.00;7.00;;;;;29.15;43.25;100687.81;5076843;27;45307;-71
2023/06/20 03:34:23;;;;;;;;;7.00;5.00;;;;;29.16;43.29;100687.59;5076650;28;45369;-71
2023/06/20 03:36:49;;;;;;;;;10.33;8.67;;;;;29.17;42.80;100691.09;5092493;27;45283;-71
2023/06/20 03:39:14;;;;;;;;;6.00;6.00;;;;;29.17;43.71;100696.44;5076265;27;45566;-71
2023/06/20 03:41:39;;;;;;;;;6.67;6.67;;;;;29.17;43.29;100691.09;5075797;27;45409;-71
2023/06/20 03:44:05;;;;;;;;;10.00;8.00;;;;;29.16;43.36;100698.31;5076593;28;45366;-71
2023/06/20 03:46:30;;;;;;;;;8.67;8.00;;;;;29.16;43.38;100705.53;5076583;27;45358;-71
2023/06/20 03:48:55;;;;;;;;;8.33;7.00;;;;;29.16;43.60;100697.50;5076448;28;45288;-71
2023/06/20 03:51:21;;;;;;;;;7.33;5.00;;;;;29.13;43.53;100685.38;5076493;27;45291;-71
2023/06/20 03:53:46;;;;;;;;;8.00;8.00;;;;;29.13;43.03;100666.63;5076105;28;46206;-71
2023/06/20 03:56:11;;;;;;;;;7.33;6.00;;;;;29.15;43.13;100674.41;5076565;28;45361;-71
2023/06/20 03:58:37;;;;;;;;;9.00;8.00;;;;;29.14;43.02;100670.13;5076560;28;45390;-71
2023/06/20 04:01:02;;;;;;;;;5.00;4.67;;;;;29.16;43.21;100668.03;5076549;27;45384;-71
2023/06/20 04:03:28;;;;;;;;;8.00;8.00;;;;;29.11;43.36;100668.72;5076294;28;45420;-71
2023/06/20 04:05:54;;;;;;;;;8.00;8.00;;;;;29.17;43.19;100667.78;5076339;28;45386;-71
2023/06/20 04:08:19;;;;;;;;;6.00;6.00;;;;;29.17;43.37;100669.66;5075922;28;45386;-71
2023/06/20 04:10:45;;;;;;;;;5.67;5.67;;;;;29.16;43.06;100670.69;5076337;28;45342;-71
2023/06/20 04:13:10;;;;;;;;;6.00;6.00;;;;;29.18;43.26;100671.28;5076236;28;46166;-71
2023/06/20 04:15:36;;;;;;;;;6.67;6.67;;;;;29.15;43.27;100669.06;5074651;28;45334;-71
2023/06/20 04:18:01;;;;;;;;;8.33;7.33;;;;;29.18;43.20;100671.28;5076206;27;45342;-71
2023/06/20 04:20:26;;;;;;;;;8.00;6.33;;;;;29.19;43.40;100670.25;5092021;27;45561;-71
2023/06/20 04:22:51;;;;;;;;;10.33;8.00;;;;;29.18;43.24;100663.25;5075623;28;48113;-71
2023/06/20 04:25:17;;;;;;;;;6.67;6.67;;;;;29.19;43.33;100670.25;5075973;28;45468;-71
2023/06/20 04:27:43;;;;;;;;;7.00;7.00;;;;;29.17;43.31;100659.75;5091810;27;45500;-71
2023/06/20 04:30:08;;;;;;;;;7.00;6.00;;;;;29.16;43.46;100668.03;5076109;27;45447;-71
2023/06/20 04:32:34;;;;;;;;;7.00;7.00;;;;;29.18;43.45;100665.91;5075905;28;47431;-71
2023/06/20 04:34:59;;;;;;;;;5.33;5.33;;;;;29.17;43.44;100654.38;5075863;28;45425;-71
2023/06/20 04:37:25;;;;;;;;;7.00;7.00;;;;;29.18;43.27;100658.72;5091471;27;45393;-71
2023/06/20 04:39:50;;;;;;;;;10.33;8.67;;;;;29.17;43.43;100646.34;5074387;27;45641;-70
2023/06/20 04:42:15;;;;;;;;;5.67;5.67;;;;;29.16;43.50;100633.19;5075753;27;45441;-71
2023/06/20 04:44:44;;;;;;;;;7.33;7.33;;;;;29.16;43.27;100638.56;5075846;28;45343;-71
2023/06/20 04:47:12;;;;;;;;;6.00;5.33;;;;;29.18;43.31;100636.47;5075914;27;45396;-71
2023/06/20 04:49:40;;;;;;;;;11.00;7.00;;;;;29.17;42.99;100641.00;5075822;27;45270;-71
2023/06/20 04:52:08;;;;;;;;;8.00;8.00;;;;;29.18;43.10;100633.78;5076448;27;45635;-71
2023/06/20 04:54:33;;;;;;;;;5.33;4.67;;;;;29.18;43.43;100639.13;5079171;28;45442;-71
2023/06/20 04:56:59;;;;;;;;;8.67;6.00;;;;;29.14;43.25;100636.13;5079397;27;45419;-71
2023/06/20 04:59:24;;;;;;;;;7.00;7.00;;;;;29.14;43.12;100637.97;5079383;28;45279;-71
2023/06/20 05:01:50;;;;;;;;;8.67;6.33;;;;;29.17;43.48;100651.72;5079106;28;45324;-71
2023/06/20 05:04:16;;;;;;;;;7.00;5.67;;;;;29.16;43.30;100660.00;5079202;28;45326;-71
2023/06/20 05:06:42;;;;;;;;;7.67;7.00;;;;;29.16;42.95;100652.78;5078824;28;45295;-71
2023/06/20 05:09:07;;;;;;;;;7.67;7.00;;;;;29.15;43.49;100656.50;5079113;28;45355;-71
2023/06/20 05:11:32;;;;;;;;;5.00;5.00;;;;;29.14;43.33;100648.69;5078673;28;52876;-71
2023/06/20 05:13:57;;;;;;;;;8.33;5.00;;;;;29.16;43.55;100658.13;5078895;28;45371;-71
2023/06/20 05:16:23;;;;;;;;;6.33;5.33;;;;;29.17;43.21;100661.63;5078809;28;45528;-71
2023/06/20 05:18:48;;;;;;;;;5.00;5.00;;;;;29.15;43.31;100659.16;5079071;28;45449;-71
2023/06/20 05:21:13;;;;;;;;;8.00;8.00;;;;;29.16;43.29;100666.16;5078528;28;45379;-71
2023/06/20 05:23:39;;;;;;;;;5.67;5.67;;;;;29.18;43.31;100676.63;5078875;27;45434;-71
2023/06/20 05:26:04;;;;;;;;;6.00;5.33;;;;;29.18;43.35;100672.09;5094750;27;45649;-71
2023/06/20 05:28:29;;;;;;;;;8.00;7.00;;;;;29.18;43.34;100677.47;5078611;28;47838;-71
2023/06/20 05:30:55;;;;;;;;;5.33;5.33;;;;;29.18;43.34;100676.63;5078692;28;45536;-71
2023/06/20 05:33:20;;;;;;;;;7.00;7.00;;;;;29.16;43.02;100668.84;5078515;27;45514;-71
2023/06/20 05:35:46;;;;;;;;;5.67;3.33;;;;;29.18;43.30;100668.59;5078357;28;45386;-71
2023/06/20 05:38:13;;;;;;;;;6.33;6.33;;;;;29.19;43.25;100667.56;5078598;28;45434;-71
2023/06/20 05:40:38;;;;;;;;;5.00;5.00;;;;;29.16;43.42;100660.81;5078247;27;46352;-71
2023/06/20 05:43:03;;;;;;;;;9.00;8.00;;;;;29.18;43.68;100655.22;5078470;27;45378;-72
2023/06/20 05:45:29;;;;;;;;;7.67;7.00;;;;;29.18;43.07;100663.25;5078763;27;45389;-71
2023/06/20 05:47:54;;;;;;;;;6.33;6.33;;;;;29.17;43.41;100664.31;5078272;28;51147;-71
2023/06/20 05:50:19;;;;;;;;;5.67;5.00;;;;;29.19;43.56;100667.56;5077756;27;46103;-71
2023/06/20 05:52:45;;;;;;;;;7.67;7.67;;;;;29.19;43.22;100667.56;5078238;28;47583;-71
2023/06/20 05:55:10;;;;;;;;;7.00;6.00;;;;;29.15;43.05;100656.50;5078281;28;45264;-71
2023/06/20 05:57:37;;;;;;;;;10.67;6.00;;;;;29.19;43.34;100656.84;5078450;28;45583;-71
2023/06/20 06:00:11;;;;;;;;;7.00;7.00;;;;;29.18;43.33;100660.56;5078167;28;46507;-71
2023/06/20 06:02:36;;;;;;;;;5.00;5.00;;;;;29.20;43.49;100660.34;5078024;28;45368;-71
2023/06/20 06:05:02;;;;;;;;;8.00;8.00;;;;;29.20;43.26;100655.00;5077067;28;45369;-71
2023/06/20 06:07:27;;;;;;;;;7.67;6.33;;;;;29.17;43.34;100653.59;5078255;28;46157;-72
2023/06/20 06:09:52;;;;;;;;;7.00;7.00;;;;;29.18;43.51;100661.38;5077936;28;46881;-71
2023/06/20 06:12:18;;;;;;;;;8.00;7.00;;;;;29.19;43.36;100667.56;5078096;28;45364;-72
2023/06/20 06:14:43;;;;;;;;;8.25;8.25;;;;;29.16;43.63;100657.31;5077991;27;45508;-70
2023/06/20 06:17:08;;;;;;;;;7.33;6.67;;;;;29.20;43.85;100665.69;5077912;28;45471;-72
2023/06/20 06:19:34;;;;;;;;;9.00;7.33;;;;;29.04;43.90;100673.38;5077527;28;46137;-72
2023/06/20 06:21:59;;;;;;;;;7.00;6.67;;;;;28.84;44.69;100664.59;5077845;27;45422;-72
2023/06/20 06:24:25;;;;;;;;;7.00;7.00;;;;;28.75;44.96;100668.69;5075555;28;45375;-72
2023/06/20 06:26:50;;;;;;;;;6.00;6.00;;;;;28.65;44.73;100671.91;5072598;28;45497;-71
2023/06/20 06:29:17;;;;;;;;;6.67;6.67;;;;;28.57;45.34;100665.03;5077082;28;45951;-71
2023/06/20 06:31:43;;;;;;;;;4.00;4.00;;;;;28.43;45.30;100656.38;5077950;28;45422;-73
2023/06/20 06:34:08;;;;;;;;;10.00;8.33;;;;;28.40;45.78;100663.00;5076549;28;45424;-72
2023/06/20 06:36:34;;;;;;;;;6.00;6.00;;;;;28.33;45.50;100656.91;5077172;28;45449;-72
2023/06/20 06:39:00;;;;;;;;;11.00;8.00;;;;;28.25;45.80;100665.25;5076924;27;46143;-72
2023/06/20 06:41:26;;;;;;;;;7.67;7.67;;;;;28.17;46.17;100669.06;5077114;28;45386;-71
2023/06/20 06:43:52;;;;;;;;;5.00;5.00;;;;;28.12;46.27;100679.63;5065523;27;46405;-72
2023/06/20 06:46:17;;;;;;;;;6.33;4.67;;;;;28.07;45.91;100669.63;5073423;28;45585;-72
2023/06/20 06:48:43;;;;;;;;;7.33;4.67;;;;;28.04;46.08;100657.53;5074433;28;46077;-72
2023/06/20 06:51:08;;;;;;;;;7.33;6.33;;;;;28.02;46.22;100659.59;5074794;28;45292;-72
2023/06/20 06:53:33;;;;;;;;;6.33;6.00;;;;;27.98;46.41;100666.44;5076422;28;45443;-71
2023/06/20 06:55:59;;;;;;;;;8.33;7.00;;;;;27.96;46.58;100658.66;5073775;27;45458;-72
2023/06/20 06:58:24;;;;;;;;;7.00;7.00;;;;;27.99;46.70;100659.22;5069290;28;46547;-72
2023/06/20 07:00:49;;;;;;;;;7.33;6.00;;;;;28.00;46.64;100660.88;5071767;27;45470;-73
2023/06/20 07:03:15;;;;;;;;;7.00;7.00;;;;;28.01;46.94;100647.28;5073122;28;45529;-72
2023/06/20 07:05:40;;;;;;;;;6.00;6.00;;;;;28.04;47.20;100652.16;5075415;27;45385;-72
2023/06/20 07:08:06;;;;;;;;;8.00;6.33;;;;;28.09;46.82;100650.66;5073470;28;46126;-72
2023/06/20 07:10:31;;;;;;;;;6.33;6.33;;;;;28.10;46.33;100654.97;5072775;27;45573;-73
2023/06/20 07:12:56;;;;;;;;;9.67;6.00;;;;;28.11;46.66;100664.63;5069400;28;45403;-70
2023/06/20 07:15:22;;;;;;;;;7.00;7.00;;;;;28.10;46.50;100661.16;5070870;27;45744;-72
2023/06/20 07:17:47;;;;;;;;;6.33;6.33;;;;;27.99;47.40;100651.22;5073847;27;47060;-72
2023/06/20 07:20:12;;;;;;;;;7.00;6.33;;;;;28.10;46.74;100671.03;5076195;28;45360;-71
2023/06/20 07:22:38;;;;;;;;;7.00;7.00;;;;;28.09;47.38;100680.91;5074869;27;45368;-73
2023/06/20 07:25:04;;;;;;;;;6.00;6.00;;;;;28.06;47.05;100676.00;5076296;28;45483;-72
2023/06/20 07:27:29;;;;;;;;;7.00;7.00;;;;;28.04;46.48;100676.25;5076016;27;46373;-72
2023/06/20 07:29:55;;;;;;;;;7.00;7.00;;;;;28.04;47.00;100692.28;5076177;27;45433;-72
2023/06/20 07:32:21;;;;;;;;;6.33;5.33;;;;;28.06;47.33;100689.38;5075064;27;45473;-72
2023/06/20 07:34:46;;;;;;;;;7.67;7.00;;;;;28.03;47.07;100687.13;5076336;27;45320;-72
2023/06/20 07:37:11;;;;;;;;;7.00;7.00;;;;;28.04;47.66;100694.13;5075709;27;46229;-72
2023/06/20 07:39:42;;;;;;;;;9.00;7.67;;;;;28.04;46.91;100689.59;5075952;27;45650;-72
2023/06/20 07:42:08;;;;;;;;;9.67;8.33;;;;;28.05;47.09;100677.84;5074560;28;45483;-72
2023/06/20 07:44:34;;;;;;;;;9.33;8.00;;;;;28.08;47.47;100684.59;5075881;27;45380;-72
2023/06/20 07:46:59;;;;;;;;;7.33;6.33;;;;;28.09;47.71;100696.13;5075445;28;45574;-72
2023/06/20 07:49:24;;;;;;;;;9.33;6.33;;;;;28.10;47.35;100697.78;5076179;28;45346;-72
2023/06/20 07:51:50;;;;;;;;;7.00;7.00;;;;;28.07;46.98;100699.84;5075826;28;45307;-72
2023/06/20 07:54:15;;;;;;;;;8.00;7.67;;;;;28.04;47.75;100700.31;5075565;28;45561;-72
2023/06/20 07:56:41;;;;;;;;;7.67;7.67;;;;;28.03;47.58;100703.19;5075472;28;46110;-72
2023/06/20 07:59:06;;;;;;;;;8.00;8.00;;;;;28.00;46.91;100709.78;5075468;27;45399;-73
2023/06/20 08:01:31;;;;;;;;;8.33;8.00;;;;;28.00;47.44;100714.34;5075315;28;45357;-72
2023/06/20 08:03:57;;;;;;;;;7.67;7.67;;;;;27.99;47.38;100710.03;5073222;27;45493;-72
2023/06/20 08:06:22;;;;;;;;;9.33;6.67;;;;;27.94;47.64;100708.03;5074232;28;47265;-72
2023/06/20 08:08:48;;;;;;;;;10.00;10.00;;;;;27.92;47.30;100713.59;5075482;28;45384;-72
2023/06/20 08:11:13;;;;;;;;;10.00;10.00;;;;;27.89;47.87;100713.25;5075855;28;45329;-72
2023/06/20 08:13:38;;;;;;;;;8.33;7.00;;;;;27.89;47.20;100727.44;5075317;28;45506;-72
2023/06/20 08:16:05;;;;;;;;;9.00;9.00;;;;;27.87;47.35;100726.81;5074641;27;47064;-72
2023/06/20 08:18:30;;;;;;;;;8.67;8.67;;;;;27.85;47.42;100719.03;5067805;27;45465;-72
2023/06/20 08:20:55;;;;;;;;;7.33;6.33;;;;;27.83;47.77;100721.13;5069905;28;46001;-72
2023/06/20 08:23:25;;;;;;;;;9.00;9.00;;;;;27.82;47.41;100722.13;5075295;28;45511;-72
2023/06/20 08:25:52;;;;;;;;;13.00;9.00;;;;;27.81;47.49;100725.03;5075057;28;46790;-72
2023/06/20 08:28:18;;;;;;;;;10.00;10.00;;;;;27.83;47.60;100725.63;5074405;28;45414;-73
2023/06/20 08:30:43;;;;;;;;;10.00;9.00;;;;;27.82;47.91;100724.00;5074304;28;45460;-72
2023/06/20 08:33:09;;;;;;;;;10.67;9.00;;;;;27.80;47.66;100724.22;5075247;28;45422;-72
2023/06/20 08:35:34;;;;;;;;;8.00;7.00;;;;;27.81;48.30;100719.69;5075217;28;46514;-72
2023/06/20 08:37:59;;;;;;;;;9.67;8.67;;;;;27.77;47.50;100707.78;5075075;28;50099;-72
2023/06/20 08:40:25;;;;;;;;;9.00;9.00;;;;;27.81;47.80;100717.84;5075188;28;45394;-72
2023/06/20 08:42:50;;;;;;;;;10.00;10.00;;;;;27.81;47.88;100725.88;5074755;28;45438;-72
2023/06/20 08:45:16;;;;;;;;;7.67;7.67;;;;;27.83;48.08;100714.94;5074311;28;45663;-72
2023/06/20 08:47:41;;;;;;;;;12.00;9.00;;;;;27.88;47.61;100714.28;5075116;27;45484;-72
2023/06/20 08:50:07;;;;;;;;;8.00;8.00;;;;;27.96;47.83;100724.66;5074205;27;45434;-72
2023/06/20 08:52:47;;;;;;;;;8.00;7.33;;;;;28.05;47.17;100727.88;5074032;28;45636;-72
2023/06/20 08:55:14;;;;;;;;;9.00;9.00;;;;;28.07;47.54;100712.41;5074485;28;46477;-72
2023/06/20 08:57:40;;;;;;;;;11.33;8.33;;;;;28.22;47.48;100724.56;5073075;28;45475;-72
2023/06/20 09:00:07;;;;;;;;;10.33;10.00;;;;;28.29;46.93;100726.09;5073164;28;45405;-72
2023/06/20 09:02:33;;;;;;;;;9.33;9.33;;;;;28.35;47.22;100727.06;5072757;28;45537;-72
2023/06/20 09:05:02;;;;;;;;;13.00;12.00;;;;;28.42;46.71;100731.53;5074489;28;46010;-70
2023/06/20 09:07:37;;;;;;;;;9.67;9.33;;;;;28.47;46.22;100723.66;5073010;28;45853;-72
2023/06/20 09:10:07;;;;;;;;;10.00;10.00;;;;;28.51;46.23;100719.47;5073901;28;45352;-72
2023/06/20 09:12:47;;;;;;;;;13.00;12.33;;;;;28.57;46.48;100702.50;5074214;28;45395;-72
2023/06/20 09:15:17;;;;;;;;;11.33;9.33;;;;;28.60;46.18;100704.72;5072599;27;45287;-72
2023/06/20 09:17:44;;;;;;;;;9.00;7.00;;;;;28.66;46.05;100712.88;5074102;27;45470;-72
2023/06/20 09:20:11;;;;;;;;;10.33;8.00;;;;;28.70;45.87;100728.25;5071556;28;45379;-72
2023/06/20 09:22:41;;;;;;;;;10.00;9.67;;;;;28.72;45.88;100731.53;5073734;28;45428;-72
2023/06/20 09:25:07;;;;;;;;;10.00;9.00;;;;;28.77;45.85;100732.69;5072898;27;46578;-72
2023/06/20 09:27:35;;;;;;;;;9.00;8.67;;;;;28.82;45.81;100730.13;5072972;28;45353;-72
2023/06/20 09:30:00;;;;;;;;;11.33;10.67;;;;;28.85;45.69;100727.81;5074490;28;45361;-72
2023/06/20 09:32:25;;;;;;;;;8.00;8.00;;;;;28.88;45.63;100733.75;5074652;28;45283;-72
2023/06/20 09:34:51;;;;;;;;;11.00;10.00;;;;;28.89;45.75;100733.53;5074102;28;46397;-72
2023/06/20 09:37:17;;;;;;;;;11.33;10.00;;;;;28.94;45.76;100743.53;5074271;28;45438;-72
2023/06/20 09:39:43;;;;;;;;;11.00;10.67;;;;;28.95;45.64;100734.47;5076640;28;45512;-72
2023/06/20 09:42:12;;;;;;;;;11.00;9.33;;;;;28.99;45.64;100745.53;5077595;28;45277;-72
2023/06/20 09:44:39;;;;;;;;;10.00;10.00;;;;;29.00;45.31;100733.78;5077782;28;46355;-73
2023/06/20 09:47:04;;;;;;;;;6.67;6.67;;;;;29.02;45.07;100735.16;5077787;28;45436;-73
2023/06/20 09:49:30;;;;;;;;;9.67;8.67;;;;;29.04;45.45;100727.72;5076910;28;45417;-72
2023/06/20 09:52:03;;;;;;;;;10.00;10.00;;;;;29.07;45.08;100729.13;5077622;28;45402;-72
2023/06/20 09:54:41;;;;;;;;;10.67;9.67;;;;;29.10;44.93;100735.91;5077743;28;46215;-73
2023/06/20 09:57:15;;;;;;;;;9.00;9.00;;;;;29.11;45.22;100741.06;5077589;28;45442;-72
2023/06/20 09:59:42;;;;;;;;;7.33;6.33;;;;;29.14;45.03;100737.09;5077750;28;45375;-72
2023/06/20 10:02:09;;;;;;;;;9.33;9.00;;;;;29.15;44.69;100739.53;5077407;28;45695;-72
2023/06/20 10:04:42;;;;;;;;;9.00;9.00;;;;;29.16;44.93;100735.81;5077396;28;45527;-72
2023/06/20 10:07:12;;;;;;;;;10.33;8.00;;;;;29.17;44.88;100740.09;5075906;28;45477;-72
2023/06/20 10:09:40;;;;;;;;;8.00;7.00;;;;;29.18;44.88;100733.72;5076902;28;45389;-73
2023/06/20 10:12:06;;;;;;;;;10.67;9.00;;;;;29.21;44.60;100727.06;5076469;28;45361;-72
2023/06/20 10:14:33;;;;;;;;;11.00;10.67;;;;;29.25;44.75;100727.44;5076974;27;46034;-71
2023/06/20 10:17:08;;;;;;;;;9.33;9.33;;;;;29.27;44.68;100725.34;5076924;27;45301;-73
2023/06/20 10:19:47;;;;;;;;;10.00;10.00;;;;;29.25;44.76;100722.06;5069142;27;45548;-70
2023/06/20 10:22:13;;;;;;;;;7.67;7.00;;;;;29.28;45.06;100738.47;5076656;27;45536;-72
2023/06/20 10:24:40;;;;;;;;;8.00;8.00;;;;;29.31;44.75;100737.19;5076435;28;46085;-73
2023/06/20 10:27:07;;;;;;;;;11.00;10.00;;;;;29.26;44.92;100732.53;5076584;27;45418;-74
2023/06/20 10:29:40;;;;;;;;;9.00;8.33;;;;;29.22;45.14;100733.25;5077344;27;45292;-73
2023/06/20 10:32:07;;;;;;;;;11.00;10.00;;;;;29.18;45.32;100732.88;5077135;28;45465;-73
2023/06/20 10:34:35;;;;;;;;;8.67;8.67;;;;;29.13;45.09;100720.19;5076743;28;46079;-73
2023/06/20 10:37:24;;;;;;;;;11.00;8.67;;;;;29.10;44.91;100709.94;5077079;28;45498;-73
2023/06/20 10:39:57;;;;;;;;;11.00;11.00;;;;;29.07;44.83;100705.00;5076765;28;45362;-73
2023/06/20 10:42:41;;;;;;;;;9.00;8.33;;;;;29.06;45.42;100709.56;5075784;28;45429;-73
2023/06/20 10:45:29;;;;;;;;;9.00;9.00;;;;;29.07;45.42;100705.84;5075609;28;46614;-72
2023/06/20 10:47:55;;;;;;;;;11.00;11.00;;;;;29.09;45.81;100713.69;5074460;27;45609;-72
2023/06/20 10:50:21;;;;;;;;;10.33;10.33;;;;;29.05;45.40;100715.97;5075396;28;45552;-72
2023/06/20 10:52:47;;;;;;;;;12.67;12.00;;;;;29.08;45.36;100720.03;5076631;28;45706;-73
2023/06/20 10:55:14;;;;;;;;;11.33;10.00;;;;;29.11;45.56;100722.28;5076492;28;45343;-72
2023/06/20 10:57:46;;;;;;;;;14.00;8.33;;;;;29.11;45.43;100716.94;5076029;27;45388;-73
2023/06/20 11:00:19;;;;;;;;;18.50;15.25;;;;;29.30;46.76;100714.16;5076524;28;45424;-72
2023/06/20 11:02:46;;;;;;;;;17.33;13.33;;;;;29.28;46.29;100722.41;5076448;28;45374;-73
2023/06/20 11:05:12;;;;;;;;;12.67;12.00;;;;;29.28;46.39;100716.22;5076227;28;47514;-72
2023/06/20 11:07:57;;;;;;;;;12.00;12.00;;;;;29.28;45.54;100717.06;5075294;28;45586;-72
2023/06/20 11:10:38;;;;;;;;;11.00;8.33;;;;;29.27;45.04;100719.97;5077016;28;45387;-72
2023/06/20 11:13:05;;;;;;;;;11.00;10.00;;;;;29.26;45.25;100719.16;5076559;28;45565;-71
2023/06/20 11:15:35;;;;;;;;;12.67;11.00;;;;;29.26;45.00;100713.78;5056056;27;46555;-71
2023/06/20 11:18:03;;;;;;;;;11.67;11.67;;;;;29.28;44.98;100717.06;5062779;27;45426;-70
2023/06/20 11:20:28;;;;;;;;;10.67;10.67;;;;;29.32;44.60;100722.78;5074761;28;45456;-72
2023/06/20 11:22:56;;;;;;;;;10.67;10.33;;;;;29.35;45.04;100729.53;5068134;28;45438;-71